Time;durP1;ratioP1;P1;durP2;ratioP2;P2;SDS_P1;SDS_P2;PMS_P1;PMS_P2;Temp;Humidity;BMP_temperature;BMP_pressure;BME280_temperature;BME280_humidity;BME280_pressure;Samples;Min_cycle;Max_cycle;Signal;HPM_P1;HPM_P2
2021/01/28 00:00:27;;;;;;;11.10;5.88;;;;;13.60;100861.00;;;;5029294;28;20246;-78
2021/01/28 00:02:54;;;;;;;9.95;5.82;;;;;13.60;100863.00;;;;5023284;28;20204;-78
2021/01/28 00:05:23;;;;;;;10.77;6.40;;;;;13.60;100858.00;;;;5028283;28;20196;-78
2021/01/28 00:07:49;;;;;;;11.63;6.30;;;;;13.60;100872.00;;;;5030254;28;20228;-78
2021/01/28 00:10:18;;;;;;;12.30;6.50;;;;;13.60;100866.00;;;;5021413;28;20215;-78
2021/01/28 00:12:45;;;;;;;11.80;6.07;;;;;13.60;100858.00;;;;5012613;28;20240;-78
2021/01/28 00:15:13;;;;;;;15.77;6.35;;;;;13.60;100844.00;;;;4991171;28;20198;-78
2021/01/28 00:17:40;;;;;;;15.40;6.88;;;;;13.60;100837.00;;;;5000537;28;20194;-78
2021/01/28 00:20:12;;;;;;;17.15;6.88;;;;;13.50;100826.00;;;;5027479;28;20215;-78
2021/01/28 00:22:38;;;;;;;14.63;6.22;;;;;13.60;100819.00;;;;5028893;28;20203;-78
2021/01/28 00:25:07;;;;;;;12.82;6.93;;;;;13.60;100815.00;;;;5030435;28;20200;-78
2021/01/28 00:27:34;;;;;;;16.50;7.65;;;;;13.60;100808.00;;;;5023053;28;20220;-78
2021/01/28 00:30:01;;;;;;;14.00;7.20;;;;;13.60;100807.00;;;;5027248;28;20196;-78
2021/01/28 00:32:28;;;;;;;12.15;6.05;;;;;13.60;100797.00;;;;5028759;28;20192;-78
2021/01/28 00:34:54;;;;;;;12.25;5.95;;;;;13.60;100798.00;;;;5026992;28;20201;-78
2021/01/28 00:37:21;;;;;;;17.20;6.28;;;;;13.60;100798.00;;;;5029490;28;20208;-78
2021/01/28 00:39:48;;;;;;;18.17;7.68;;;;;13.60;100799.00;;;;5028857;28;20666;-78
2021/01/28 00:42:14;;;;;;;12.10;5.88;;;;;13.60;100793.00;;;;5029596;28;20204;-77
2021/01/28 00:44:42;;;;;;;13.65;5.88;;;;;13.60;100786.00;;;;5029495;28;20642;-78
2021/01/28 00:47:09;;;;;;;16.75;6.30;;;;;13.60;100786.00;;;;5028723;28;20200;-78
2021/01/28 00:49:35;;;;;;;20.55;7.63;;;;;13.60;100782.00;;;;5029581;28;20581;-78
2021/01/28 00:52:03;;;;;;;12.30;6.55;;;;;13.60;100779.00;;;;5027664;28;20227;-78
2021/01/28 00:54:29;;;;;;;18.60;5.95;;;;;13.60;100777.00;;;;5028230;28;20224;-78
2021/01/28 00:56:56;;;;;;;13.13;6.38;;;;;13.60;100781.00;;;;5028303;28;20219;-78
2021/01/28 00:59:23;;;;;;;14.70;6.43;;;;;13.60;100778.00;;;;5028691;28;20204;-78
2021/01/28 01:01:50;;;;;;;14.35;5.60;;;;;13.50;100769.00;;;;5028594;28;20199;-78
2021/01/28 01:04:17;;;;;;;14.75;6.72;;;;;13.50;100764.00;;;;5029604;28;20196;-78
2021/01/28 01:06:44;;;;;;;15.95;8.05;;;;;13.50;100743.00;;;;5026895;28;20220;-78
2021/01/28 01:09:11;;;;;;;14.02;6.78;;;;;13.50;100743.00;;;;5019871;28;20698;-78
2021/01/28 01:11:37;;;;;;;15.25;7.35;;;;;13.50;100746.00;;;;5024015;28;20199;-78
2021/01/28 01:14:04;;;;;;;17.88;7.15;;;;;13.50;100753.00;;;;5029003;28;20192;-78
2021/01/28 01:16:31;;;;;;;15.63;6.78;;;;;13.50;100746.00;;;;5027669;28;20220;-78
2021/01/28 01:18:58;;;;;;;16.35;7.68;;;;;13.50;100732.00;;;;5029133;28;20192;-78
2021/01/28 01:21:25;;;;;;;18.60;6.88;;;;;13.50;100734.00;;;;5027424;28;20688;-78
2021/01/28 01:23:52;;;;;;;14.82;6.75;;;;;13.50;100719.00;;;;5028863;28;20224;-78
2021/01/28 01:26:18;;;;;;;13.38;6.90;;;;;13.50;100732.00;;;;5022069;28;20228;-78
2021/01/28 01:28:45;;;;;;;17.60;7.10;;;;;13.50;100732.00;;;;5024540;28;20278;-78
2021/01/28 01:31:12;;;;;;;20.88;6.88;;;;;13.50;100722.00;;;;5028653;28;20204;-78
2021/01/28 01:33:39;;;;;;;17.63;7.55;;;;;13.50;100715.00;;;;5027356;28;20192;-78
2021/01/28 01:36:07;;;;;;;14.77;5.97;;;;;13.50;100712.00;;;;5028872;28;20204;-78
2021/01/28 01:38:34;;;;;;;15.98;6.63;;;;;13.50;100714.00;;;;5027104;28;20200;-78
2021/01/28 01:41:00;;;;;;;16.77;6.93;;;;;13.50;100718.00;;;;5028517;28;20204;-78
2021/01/28 01:43:27;;;;;;;16.00;7.25;;;;;13.50;100709.00;;;;5020212;28;20209;-78
2021/01/28 01:45:58;;;;;;;17.65;7.15;;;;;13.50;100691.00;;;;5011269;28;20216;-78
2021/01/28 01:48:30;;;;;;;20.02;6.85;;;;;13.50;100709.00;;;;5026952;28;20232;-78
2021/01/28 01:51:02;;;;;;;15.55;6.57;;;;;13.50;100702.00;;;;5028218;28;20249;-78
2021/01/28 01:53:32;;;;;;;20.00;7.57;;;;;13.40;100684.00;;;;5028618;28;20223;-78
2021/01/28 01:56:02;;;;;;;18.08;7.07;;;;;13.40;100694.00;;;;5028259;28;20250;-78
2021/01/28 01:58:43;;;;;;;16.58;7.00;;;;;13.40;100682.00;;;;5027554;28;20655;-78
2021/01/28 02:01:09;;;;;;;16.08;7.93;;;;;13.50;100687.00;;;;5022141;28;20653;-78
2021/01/28 02:03:38;;;;;;;16.90;6.88;;;;;13.40;100681.00;;;;5027839;28;20211;-78
2021/01/28 02:06:14;;;;;;;17.17;7.35;;;;;13.40;100674.00;;;;5028226;28;20211;-78
2021/01/28 02:08:42;;;;;;;18.50;7.30;;;;;13.40;100655.00;;;;5025441;28;20639;-78
2021/01/28 02:11:10;;;;;;;13.75;5.70;;;;;13.40;100646.00;;;;5015366;28;20550;-78
2021/01/28 02:13:37;;;;;;;14.30;6.25;;;;;13.40;100639.00;;;;5028659;28;20196;-78
2021/01/28 02:16:05;;;;;;;16.55;6.53;;;;;13.40;100633.00;;;;5027702;28;20717;-78
2021/01/28 02:18:32;;;;;;;16.67;7.13;;;;;13.40;100628.00;;;;5014346;28;20241;-78
2021/01/28 02:21:09;;;;;;;15.05;6.85;;;;;13.30;100613.00;;;;5027918;28;20192;-78
2021/01/28 02:24:02;;;;;;;15.52;7.28;;;;;13.30;100596.00;;;;5027780;28;20192;-78
2021/01/28 02:26:31;;;;;;;15.90;6.63;;;;;13.40;100591.00;;;;5027751;28;20203;-78
2021/01/28 02:28:58;;;;;;;14.48;7.10;;;;;13.40;100579.00;;;;5026731;28;20216;-78
2021/01/28 02:31:27;;;;;;;20.10;7.72;;;;;13.40;100593.00;;;;5026884;28;20196;-78
2021/01/28 02:33:56;;;;;;;23.92;7.72;;;;;13.40;100586.00;;;;5024605;28;20201;-78
2021/01/28 02:36:29;;;;;;;19.55;8.30;;;;;13.30;100595.00;;;;5010332;28;20213;-78
2021/01/28 02:38:56;;;;;;;17.70;7.28;;;;;13.40;100593.00;;;;4988736;28;20220;-78
2021/01/28 02:41:23;;;;;;;20.27;7.43;;;;;13.40;100588.00;;;;4991063;28;20201;-78
2021/01/28 02:43:52;;;;;;;15.50;7.05;;;;;13.40;100592.00;;;;5027293;28;20192;-78
2021/01/28 02:46:20;;;;;;;16.02;6.03;;;;;13.40;100588.00;;;;5026981;28;20196;-78
2021/01/28 02:48:49;;;;;;;19.30;7.93;;;;;13.40;100587.00;;;;5025785;28;20243;-78
2021/01/28 02:51:16;;;;;;;15.82;6.75;;;;;13.40;100579.00;;;;5021596;28;20208;-78
2021/01/28 02:53:44;;;;;;;19.00;8.27;;;;;13.40;100583.00;;;;5022949;28;20232;-78
2021/01/28 02:56:11;;;;;;;20.20;7.53;;;;;13.40;100590.00;;;;5027971;28;20200;-78
2021/01/28 02:58:38;;;;;;;19.27;8.80;;;;;13.40;100580.00;;;;5026116;28;20988;-78
2021/01/28 03:01:08;;;;;;;17.92;6.93;;;;;13.40;100573.00;;;;5026216;28;20723;-78
2021/01/28 03:03:35;;;;;;;17.35;7.32;;;;;13.40;100568.00;;;;5006414;28;20547;-78
2021/01/28 03:06:04;;;;;;;13.77;6.60;;;;;13.40;100573.00;;;;5027743;28;20199;-78
2021/01/28 03:08:32;;;;;;;17.15;6.43;;;;;13.40;100579.00;;;;5019625;28;20237;-77
2021/01/28 03:11:00;;;;;;;14.57;6.30;;;;;13.40;100559.00;;;;5008240;28;20209;-78
2021/01/28 03:13:28;;;;;;;18.45;6.90;;;;;13.40;100575.00;;;;5024579;28;20208;-78
2021/01/28 03:15:54;;;;;;;17.98;6.80;;;;;13.40;100572.00;;;;5027049;28;20670;-78
2021/01/28 03:18:23;;;;;;;16.30;7.25;;;;;13.30;100570.00;;;;4988632;28;20202;-78
2021/01/28 03:20:51;;;;;;;15.40;7.22;;;;;13.40;100557.00;;;;4989023;28;20582;-78
2021/01/28 03:23:19;;;;;;;15.80;7.80;;;;;13.40;100556.00;;;;5024688;28;20204;-78
2021/01/28 03:25:46;;;;;;;15.85;7.30;;;;;13.30;100548.00;;;;5020117;28;20200;-78
2021/01/28 03:28:14;;;;;;;15.23;6.72;;;;;13.30;100559.00;;;;5020075;28;20225;-79
2021/01/28 03:30:44;;;;;;;13.23;6.13;;;;;13.30;100547.00;;;;5025121;28;20208;-78
2021/01/28 03:33:14;;;;;;;17.70;7.68;;;;;13.30;100550.00;;;;5029003;28;20219;-78
2021/01/28 03:35:42;;;;;;;15.07;8.15;;;;;13.30;100539.00;;;;5031166;28;20192;-78
2021/01/28 03:38:10;;;;;;;10.98;5.43;;;;;13.30;100537.00;;;;5031291;28;20204;-78
2021/01/28 03:40:38;;;;;;;14.57;6.70;;;;;13.30;100529.00;;;;5031211;28;20197;-78
2021/01/28 03:43:05;;;;;;;14.55;7.15;;;;;13.30;100515.00;;;;5029498;28;20272;-78
2021/01/28 03:45:32;;;;;;;19.05;7.50;;;;;13.30;100511.00;;;;5021641;28;20196;-78
2021/01/28 03:48:00;;;;;;;17.27;7.40;;;;;13.30;100507.00;;;;5031408;28;20231;-78
2021/01/28 03:50:29;;;;;;;16.00;7.30;;;;;13.30;100514.00;;;;5030237;28;20246;-78
2021/01/28 03:52:57;;;;;;;14.40;5.88;;;;;13.30;100515.00;;;;5030114;28;20294;-78
2021/01/28 03:55:24;;;;;;;14.38;6.78;;;;;13.30;100508.00;;;;5030886;28;20200;-78
2021/01/28 03:57:52;;;;;;;15.65;6.88;;;;;13.30;100505.00;;;;5031167;28;20212;-78
2021/01/28 04:00:21;;;;;;;13.02;6.47;;;;;13.20;100502.00;;;;5028950;28;20601;-78
2021/01/28 04:02:48;;;;;;;13.02;6.35;;;;;13.20;100496.00;;;;5030420;28;20200;-78
2021/01/28 04:05:16;;;;;;;13.90;6.80;;;;;13.20;100488.00;;;;5031093;28;20196;-78
2021/01/28 04:07:42;;;;;;;13.38;6.03;;;;;13.20;100479.00;;;;5030791;28;20243;-78
2021/01/28 04:10:13;;;;;;;10.20;5.13;;;;;13.20;100478.00;;;;5017590;28;20204;-78
2021/01/28 04:12:40;;;;;;;15.02;7.05;;;;;13.20;100474.00;;;;5030365;28;20196;-78
2021/01/28 04:15:09;;;;;;;14.35;7.40;;;;;13.20;100470.00;;;;5029778;28;20204;-78
2021/01/28 04:17:36;;;;;;;14.43;7.47;;;;;13.20;100468.00;;;;5022117;28;20200;-78
2021/01/28 04:20:05;;;;;;;13.25;6.68;;;;;13.20;100450.00;;;;5031085;28;20208;-78
2021/01/28 04:22:32;;;;;;;13.93;7.20;;;;;13.10;100446.00;;;;5030331;28;20204;-78
2021/01/28 04:24:59;;;;;;;12.88;5.80;;;;;13.20;100439.00;;;;5030329;28;20196;-78
2021/01/28 04:27:27;;;;;;;13.43;5.80;;;;;13.10;100433.00;;;;5029575;28;20192;-78
2021/01/28 04:29:54;;;;;;;13.38;6.22;;;;;13.10;100431.00;;;;5029627;28;20201;-78
2021/01/28 04:32:20;;;;;;;12.50;6.55;;;;;13.10;100425.00;;;;5029605;28;20230;-78
2021/01/28 04:34:47;;;;;;;11.02;5.00;;;;;13.10;100416.00;;;;5023221;28;20200;-78
2021/01/28 04:37:14;;;;;;;12.85;5.95;;;;;13.10;100415.00;;;;5030428;28;20200;-78
2021/01/28 04:39:41;;;;;;;13.55;6.15;;;;;13.10;100404.00;;;;5029029;28;20581;-78
2021/01/28 04:42:14;;;;;;;12.18;5.97;;;;;13.10;100395.00;;;;5018375;28;20216;-78
2021/01/28 04:44:42;;;;;;;14.77;6.82;;;;;13.10;100392.00;;;;5021230;28;20205;-78
2021/01/28 04:47:14;;;;;;;9.93;5.15;;;;;13.10;100392.00;;;;5002351;28;20219;-78
2021/01/28 04:49:48;;;;;;;15.90;6.15;;;;;13.10;100379.00;;;;5028382;28;20643;-78
2021/01/28 04:52:16;;;;;;;12.50;5.47;;;;;13.10;100368.00;;;;5007442;28;20219;-78
2021/01/28 04:54:44;;;;;;;15.77;6.57;;;;;13.10;100375.00;;;;5029637;28;20220;-78
2021/01/28 04:57:13;;;;;;;14.48;6.90;;;;;13.10;100360.00;;;;5010953;28;20212;-78
2021/01/28 04:59:43;;;;;;;14.27;6.75;;;;;13.10;100350.00;;;;5010847;28;20232;-78
2021/01/28 05:02:14;;;;;;;12.23;5.60;;;;;13.10;100338.00;;;;5016542;28;20197;-78
2021/01/28 05:04:46;;;;;;;15.20;6.80;;;;;13.10;100335.00;;;;5025069;28;20609;-79
2021/01/28 05:07:19;;;;;;;16.77;7.22;;;;;13.10;100332.00;;;;5022249;28;20585;-78
2021/01/28 05:10:01;;;;;;;14.02;7.55;;;;;13.00;100316.00;;;;5009536;28;20698;-78
2021/01/28 05:12:28;;;;;;;19.20;7.40;;;;;13.10;100316.00;;;;5015212;28;20188;-78
2021/01/28 05:15:12;;;;;;;14.20;7.03;;;;;13.00;100307.00;;;;5025538;28;20925;-78
2021/01/28 05:17:40;;;;;;;19.25;7.45;;;;;13.10;100308.00;;;;5010472;28;20226;-78
2021/01/28 05:20:14;;;;;;;16.27;7.78;;;;;13.10;100305.00;;;;5010042;28;20217;-78
2021/01/28 05:22:44;;;;;;;12.52;6.65;;;;;13.10;100285.00;;;;5019721;28;20821;-78
2021/01/28 05:25:16;;;;;;;13.48;6.43;;;;;13.10;100290.00;;;;5015686;28;20536;-78
2021/01/28 05:27:44;;;;;;;13.20;6.68;;;;;13.10;100274.00;;;;5024820;28;20566;-78
2021/01/28 05:30:16;;;;;;;14.75;6.95;;;;;13.00;100285.00;;;;5022411;28;20565;-78
2021/01/28 05:32:45;;;;;;;15.80;7.40;;;;;13.10;100270.00;;;;5016224;28;20545;-78
2021/01/28 05:35:22;;;;;;;15.23;7.78;;;;;13.00;100268.00;;;;5010372;28;20212;-78
2021/01/28 05:38:02;;;;;;;16.60;7.68;;;;;13.00;100251.00;;;;5013118;28;20243;-78
2021/01/28 05:40:29;;;;;;;13.80;7.32;;;;;13.00;100254.00;;;;5009688;28;20193;-77
2021/01/28 05:42:56;;;;;;;13.23;7.25;;;;;13.00;100243.00;;;;5019897;28;20245;-78
2021/01/28 05:45:37;;;;;;;13.55;7.10;;;;;12.90;100233.00;;;;5013201;28;20197;-79
2021/01/28 05:48:33;;;;;;;13.30;6.32;;;;;12.90;100232.00;;;;5009858;28;20228;-78
2021/01/28 05:51:06;;;;;;;13.05;6.72;;;;;13.00;100225.00;;;;5022526;28;20208;-78
2021/01/28 05:53:33;;;;;;;12.77;5.93;;;;;13.00;100226.00;;;;5007911;28;20235;-78
2021/01/28 05:56:02;;;;;;;11.82;6.25;;;;;13.00;100221.00;;;;5015899;28;20193;-78
2021/01/28 05:58:40;;;;;;;13.27;6.68;;;;;13.00;100214.00;;;;5009639;28;20203;-78
2021/01/28 06:01:19;;;;;;;12.50;5.88;;;;;13.00;100204.00;;;;5001607;28;20565;-78
2021/01/28 06:04:33;;;;;;;11.18;4.78;;;;;12.90;100197.00;;;;5016153;28;20212;-78
2021/01/28 06:07:20;;;;;;;8.88;5.07;;;;;13.00;100186.00;;;;5001537;28;20658;-79
2021/01/28 06:10:04;;;;;;;10.38;4.97;;;;;12.90;100188.00;;;;4993327;28;20711;-79
2021/01/28 06:13:02;;;;;;;8.65;4.88;;;;;12.90;100183.00;;;;5014989;28;20195;-79
2021/01/28 06:15:38;;;;;;;8.45;4.43;;;;;13.00;100174.00;;;;5021112;28;20209;-78
2021/01/28 06:18:22;;;;;;;7.80;4.20;;;;;12.90;100177.00;;;;5007976;28;20682;-78
2021/01/28 06:21:07;;;;;;;9.10;4.40;;;;;12.90;100172.00;;;;5008244;28;20204;-78
2021/01/28 06:23:55;;;;;;;8.05;4.07;;;;;12.90;100171.00;;;;5013963;28;20208;-78
2021/01/28 06:26:32;;;;;;;9.23;3.95;;;;;12.90;100161.00;;;;5009673;28;20242;-78
2021/01/28 06:29:13;;;;;;;8.32;4.20;;;;;12.90;100164.00;;;;5016769;28;20217;-78
2021/01/28 06:31:51;;;;;;;9.38;4.68;;;;;12.90;100165.00;;;;5008479;28;20193;-78
2021/01/28 06:34:48;;;;;;;8.23;3.70;;;;;12.90;100164.00;;;;5017786;28;20280;-79
2021/01/28 06:37:30;;;;;;;6.65;3.47;;;;;12.90;100153.00;;;;5005790;28;21003;-78
2021/01/28 06:39:58;;;;;;;7.78;3.90;;;;;12.90;100145.00;;;;5009229;28;20200;-79
2021/01/28 06:42:31;;;;;;;7.38;3.90;;;;;12.90;100137.00;;;;5010579;28;20212;-79
2021/01/28 06:45:04;;;;;;;6.55;3.90;;;;;12.90;100147.00;;;;5008566;28;20201;-79
2021/01/28 06:47:37;;;;;;;8.63;4.25;;;;;12.90;100137.00;;;;5026747;28;20200;-80
2021/01/28 06:50:11;;;;;;;4.97;2.80;;;;;12.90;100132.00;;;;5005139;28;20202;-79
2021/01/28 06:52:49;;;;;;;5.55;3.13;;;;;12.90;100129.00;;;;5001285;28;20210;-78
2021/01/28 06:55:30;;;;;;;7.95;3.55;;;;;12.90;100123.00;;;;4988483;28;20194;-79
2021/01/28 06:58:23;;;;;;;5.05;2.55;;;;;12.90;100110.00;;;;4998214;28;20201;-79
2021/01/28 07:00:57;;;;;;;5.35;2.80;;;;;12.90;100100.00;;;;4986503;28;20200;-79
2021/01/28 07:03:33;;;;;;;5.47;2.53;;;;;12.90;100083.00;;;;5019511;28;20197;-79
2021/01/28 07:06:10;;;;;;;5.53;2.90;;;;;12.90;100085.00;;;;5011403;28;20205;-79
2021/01/28 07:08:55;;;;;;;5.95;3.05;;;;;12.80;100069.00;;;;5017499;28;20626;-80
2021/01/28 07:11:31;;;;;;;3.88;2.13;;;;;12.90;100063.00;;;;5018071;28;20688;-84
2021/01/28 07:14:00;;;;;;;4.47;2.38;;;;;12.90;100060.00;;;;5028805;28;20259;-78
2021/01/28 07:16:33;;;;;;;4.63;2.42;;;;;12.90;100051.00;;;;5028474;28;20224;-81
2021/01/28 07:19:05;;;;;;;3.90;1.88;;;;;12.90;100044.00;;;;5014628;28;20558;-82
2021/01/28 07:21:36;;;;;;;3.65;1.98;;;;;12.80;100036.00;;;;5011559;28;20201;-80
2021/01/28 07:24:06;;;;;;;3.28;1.60;;;;;12.80;100029.00;;;;5011951;28;20259;-82
2021/01/28 07:26:49;;;;;;;3.05;1.85;;;;;12.70;100026.00;;;;5011675;28;20247;-82
2021/01/28 07:29:53;;;;;;;3.10;1.55;;;;;12.70;100021.00;;;;5019225;28;20230;-80
2021/01/28 07:32:52;;;;;;;2.85;1.33;;;;;12.70;100020.00;;;;5030470;28;20666;-81
2021/01/28 07:35:47;;;;;;;2.28;1.40;;;;;12.60;100017.00;;;;5028907;28;20263;-80
2021/01/28 07:38:50;;;;;;;2.20;1.38;;;;;12.60;100012.00;;;;5030745;28;20200;-80
2021/01/28 07:41:27;;;;;;;2.47;1.27;;;;;12.70;100015.00;;;;5016935;28;20204;-80
2021/01/28 07:44:16;;;;;;;2.28;1.25;;;;;12.70;100009.00;;;;5026718;28;20199;-80
2021/01/28 07:46:42;;;;;;;2.47;1.65;;;;;12.70;100009.00;;;;5030944;28;20250;-80
2021/01/28 07:49:20;;;;;;;3.40;1.50;;;;;12.60;100009.00;;;;5030986;28;20228;-80
2021/01/28 07:51:48;;;;;;;2.70;1.25;;;;;12.70;99999.00;;;;5029278;28;20208;-81
2021/01/28 07:54:37;;;;;;;3.03;1.42;;;;;12.60;100001.00;;;;5016428;28;20217;-80
2021/01/28 07:57:07;;;;;;;2.90;1.40;;;;;12.70;99991.00;;;;5012068;28;20196;-81
2021/01/28 07:59:43;;;;;;;2.17;1.20;;;;;12.60;99999.00;;;;5011257;28;20197;-80
2021/01/28 08:02:22;;;;;;;2.30;1.20;;;;;12.60;99988.00;;;;5024920;28;20192;-81
2021/01/28 08:04:53;;;;;;;3.20;1.40;;;;;12.60;99996.00;;;;5026974;28;20291;-81
2021/01/28 08:07:24;;;;;;;2.55;1.52;;;;;12.60;99994.00;;;;5011704;28;20200;-81
2021/01/28 08:09:53;;;;;;;1.85;1.00;;;;;12.60;99992.00;;;;5003343;28;20221;-79
2021/01/28 08:12:23;;;;;;;1.50;0.93;;;;;12.60;99986.00;;;;5006293;28;20208;-81
2021/01/28 08:14:52;;;;;;;2.58;1.33;;;;;12.60;99982.00;;;;5016997;28;20213;-80
2021/01/28 08:17:24;;;;;;;1.83;1.15;;;;;12.60;99981.00;;;;5019570;28;20246;-81
2021/01/28 08:19:51;;;;;;;1.58;1.30;;;;;12.70;99978.00;;;;5026702;28;22043;-81
2021/01/28 08:22:21;;;;;;;1.88;1.13;;;;;12.60;99973.00;;;;5026789;28;20204;-81
2021/01/28 08:24:56;;;;;;;1.85;1.17;;;;;12.60;99963.00;;;;5008687;28;20200;-81
2021/01/28 08:27:30;;;;;;;1.65;1.10;;;;;12.60;99962.00;;;;5014361;28;20204;-83
2021/01/28 08:30:07;;;;;;;1.52;0.90;;;;;12.60;99966.00;;;;5020699;28;20223;-81
2021/01/28 08:32:37;;;;;;;2.50;1.10;;;;;12.60;99954.00;;;;5023382;28;20204;-81
2021/01/28 08:35:06;;;;;;;1.95;1.20;;;;;12.60;99951.00;;;;5021601;28;20676;-81
2021/01/28 08:37:35;;;;;;;3.00;0.93;;;;;12.60;99948.00;;;;5017107;28;20212;-81
2021/01/28 08:40:12;;;;;;;1.48;0.98;;;;;12.50;99941.00;;;;5030943;28;20219;-81
2021/01/28 08:42:39;;;;;;;1.48;1.05;;;;;12.60;99946.00;;;;5018739;28;20197;-81
2021/01/28 08:45:21;;;;;;;1.98;1.20;;;;;12.40;99935.00;;;;5028932;28;20200;-81
2021/01/28 08:47:58;;;;;;;1.80;1.02;;;;;12.40;99931.00;;;;5009417;28;20581;-81
2021/01/28 08:50:27;;;;;;;1.73;0.98;;;;;12.50;99930.00;;;;5026876;28;20199;-81
2021/01/28 08:52:59;;;;;;;1.13;0.90;;;;;12.50;99928.00;;;;5026565;28;20648;-80
2021/01/28 08:55:31;;;;;;;1.98;1.00;;;;;12.50;99924.00;;;;5029424;28;20219;-80
2021/01/28 08:58:04;;;;;;;1.88;1.20;;;;;12.50;99924.00;;;;5019615;28;20212;-80
2021/01/28 09:00:31;;;;;;;1.65;1.00;;;;;12.50;99922.00;;;;5012384;28;20193;-81
2021/01/28 09:03:02;;;;;;;1.38;1.02;;;;;12.50;99911.00;;;;5027643;28;20200;-81
2021/01/28 09:05:32;;;;;;;1.50;1.00;;;;;12.40;99895.00;;;;5021792;28;20205;-81
2021/01/28 09:08:01;;;;;;;1.63;1.00;;;;;12.40;99894.00;;;;5018836;28;20288;-81
2021/01/28 09:10:36;;;;;;;1.45;1.00;;;;;12.40;99898.00;;;;5013096;28;20281;-81
2021/01/28 09:13:17;;;;;;;1.73;0.80;;;;;12.30;99897.00;;;;5017182;28;20744;-81
2021/01/28 09:15:45;;;;;;;1.40;0.93;;;;;12.40;99896.00;;;;5027964;28;20200;-81
2021/01/28 09:18:27;;;;;;;1.33;0.82;;;;;12.40;99886.00;;;;5028933;28;20188;-80
2021/01/28 09:21:04;;;;;;;1.05;0.82;;;;;12.40;99886.00;;;;4997542;28;20238;-81
2021/01/28 09:23:30;;;;;;;1.25;0.73;;;;;12.40;99899.00;;;;5015614;28;20255;-81
2021/01/28 09:26:12;;;;;;;1.60;0.88;;;;;12.30;99899.00;;;;5003656;28;20198;-81
2021/01/28 09:28:39;;;;;;;1.20;0.80;;;;;12.40;99896.00;;;;4997799;28;20217;-82
2021/01/28 09:31:24;;;;;;;2.05;0.80;;;;;12.30;99894.00;;;;5027563;28;20631;-80
2021/01/28 09:33:51;;;;;;;1.17;0.68;;;;;12.40;99894.00;;;;5026850;28;21048;-80
2021/01/28 09:36:22;;;;;;;1.27;0.80;;;;;12.30;99895.00;;;;5026950;28;20619;-81
2021/01/28 09:39:06;;;;;;;1.40;0.73;;;;;12.30;99899.00;;;;5023245;28;20208;-81
2021/01/28 09:41:38;;;;;;;1.20;0.60;;;;;12.30;99887.00;;;;5026755;28;20205;-80
2021/01/28 09:44:29;;;;;;;1.02;0.77;;;;;12.30;99884.00;;;;5026865;28;20208;-81
2021/01/28 09:47:05;;;;;;;1.80;0.90;;;;;12.30;99883.00;;;;5025159;28;20208;-80
2021/01/28 09:49:32;;;;;;;1.10;0.90;;;;;12.40;99890.00;;;;5013850;28;20224;-81
2021/01/28 09:51:58;;;;;;;1.15;0.80;;;;;12.40;99881.00;;;;5016929;28;20221;-80
2021/01/28 09:54:25;;;;;;;1.08;0.70;;;;;12.40;99890.00;;;;5016827;28;20216;-80
2021/01/28 09:56:53;;;;;;;1.67;0.70;;;;;12.40;99880.00;;;;5009082;28;20209;-80
2021/01/28 09:59:20;;;;;;;1.25;0.57;;;;;12.40;99882.00;;;;5009896;28;20689;-79
2021/01/28 10:01:47;;;;;;;2.15;0.80;;;;;12.40;99875.00;;;;5012561;28;20709;-80
2021/01/28 10:04:14;;;;;;;1.25;0.88;;;;;12.40;99876.00;;;;5020802;28;20219;-81
2021/01/28 10:06:43;;;;;;;1.85;1.08;;;;;12.40;99871.00;;;;5009633;28;20216;-89
2021/01/28 10:09:10;;;;;;;1.48;0.75;;;;;12.40;99871.00;;;;5028047;28;20767;-82
2021/01/28 10:11:37;;;;;;;0.80;0.70;;;;;12.40;99868.00;;;;4995456;28;20597;-81
2021/01/28 10:14:05;;;;;;;1.10;0.85;;;;;12.40;99868.00;;;;5009322;28;20208;-81
2021/01/28 10:16:32;;;;;;;1.08;0.95;;;;;12.40;99868.00;;;;5008662;28;20209;-77
2021/01/28 10:18:59;;;;;;;0.95;0.70;;;;;12.50;99871.00;;;;5008831;28;20762;-77
2021/01/28 10:21:26;;;;;;;1.20;0.63;;;;;12.40;99871.00;;;;5008538;28;20209;-76
2021/01/28 10:23:53;;;;;;;1.30;0.70;;;;;12.40;99866.00;;;;5008664;28;20662;-77
2021/01/28 10:26:19;;;;;;;0.60;0.55;;;;;12.40;99864.00;;;;5008753;28;20220;-77
2021/01/28 10:28:46;;;;;;;0.85;0.55;;;;;12.40;99865.00;;;;5008649;28;20224;-76
2021/01/28 10:31:14;;;;;;;0.75;0.50;;;;;12.40;99862.00;;;;5008608;28;20666;-77
2021/01/28 10:33:41;;;;;;;0.85;0.50;;;;;12.40;99858.00;;;;5009320;28;20255;-77
2021/01/28 10:36:08;;;;;;;0.60;0.43;;;;;12.50;99869.00;;;;5008511;28;20251;-76
2021/01/28 10:38:35;;;;;;;0.90;0.50;;;;;12.50;99867.00;;;;5008124;28;20208;-77
2021/01/28 10:41:02;;;;;;;0.90;0.50;;;;;12.40;99853.00;;;;5010437;28;20201;-77
2021/01/28 10:43:29;;;;;;;0.70;0.68;;;;;12.40;99857.00;;;;5014877;28;20200;-76
2021/01/28 10:45:57;;;;;;;0.95;0.65;;;;;12.40;99862.00;;;;5014649;28;20702;-77
2021/01/28 10:48:25;;;;;;;1.00;0.70;;;;;12.40;99863.00;;;;5014797;28;20662;-77
2021/01/28 10:50:52;;;;;;;1.55;0.73;;;;;12.40;99864.00;;;;5014204;28;20220;-77
2021/01/28 10:53:19;;;;;;;0.82;0.68;;;;;12.40;99859.00;;;;5020703;28;20236;-77
2021/01/28 10:55:45;;;;;;;1.55;1.00;;;;;12.40;99853.00;;;;5034686;28;20572;-77
2021/01/28 10:58:12;;;;;;;1.92;0.75;;;;;12.40;99855.00;;;;5034457;28;20200;-77
2021/01/28 11:00:39;;;;;;;1.52;1.25;;;;;12.40;99860.00;;;;5033820;28;20254;-77
2021/01/28 11:03:06;;;;;;;1.40;1.00;;;;;12.40;99850.00;;;;5034800;28;20199;-77
2021/01/28 11:05:37;;;;;;;1.38;1.17;;;;;12.40;99846.00;;;;5033464;28;20211;-76
2021/01/28 11:08:06;;;;;;;1.90;1.23;;;;;12.40;99839.00;;;;5034544;28;20208;-77
2021/01/28 11:10:33;;;;;;;1.63;1.25;;;;;12.40;99836.00;;;;5022816;28;20204;-77
2021/01/28 11:13:00;;;;;;;2.55;1.50;;;;;12.40;99843.00;;;;5015297;28;20239;-77
2021/01/28 11:15:29;;;;;;;2.13;1.42;;;;;12.50;99839.00;;;;5013643;28;20209;-76
2021/01/28 11:17:56;;;;;;;2.78;1.50;;;;;12.50;99839.00;;;;5014562;28;20209;-77
2021/01/28 11:20:22;;;;;;;1.98;1.27;;;;;12.50;99832.00;;;;5014343;28;20248;-77
2021/01/28 11:22:50;;;;;;;2.15;1.10;;;;;12.50;99835.00;;;;5013505;28;20446;-77
2021/01/28 11:25:18;;;;;;;1.75;1.10;;;;;12.60;99832.00;;;;5014046;28;20209;-77
2021/01/28 11:27:48;;;;;;;1.42;1.00;;;;;12.60;99837.00;;;;5014692;28;20597;-76
2021/01/28 11:30:17;;;;;;;1.75;1.27;;;;;12.60;99828.00;;;;5014039;28;20225;-76
2021/01/28 11:32:44;;;;;;;2.17;1.55;;;;;12.60;99827.00;;;;5013866;28;20631;-76
2021/01/28 11:35:11;;;;;;;2.08;1.25;;;;;12.70;99824.00;;;;5013581;28;20275;-76
2021/01/28 11:37:44;;;;;;;2.10;1.50;;;;;12.70;99820.00;;;;5014362;28;20200;-77
2021/01/28 11:40:13;;;;;;;1.70;1.45;;;;;12.70;99807.00;;;;4994368;28;20208;-76
2021/01/28 11:42:39;;;;;;;1.95;1.70;;;;;12.70;99813.00;;;;4994647;28;20214;-76
2021/01/28 11:45:08;;;;;;;3.05;2.03;;;;;12.70;99807.00;;;;5006415;28;20200;-76
2021/01/28 11:47:35;;;;;;;3.75;1.70;;;;;12.80;99802.00;;;;5013751;28;20193;-76
2021/01/28 11:50:01;;;;;;;2.30;2.00;;;;;12.80;99807.00;;;;5014176;28;20221;-76
2021/01/28 11:52:28;;;;;;;2.78;2.38;;;;;12.80;99799.00;;;;5011884;28;20205;-76
2021/01/28 11:54:55;;;;;;;3.85;2.25;;;;;12.80;99804.00;;;;5026961;28;20241;-76
2021/01/28 11:57:22;;;;;;;2.95;2.28;;;;;12.80;99821.00;;;;5010830;28;20200;-76
2021/01/28 11:59:49;;;;;;;2.45;2.00;;;;;12.80;99819.00;;;;5010730;28;20201;-77
2021/01/28 12:02:16;;;;;;;3.63;2.17;;;;;12.80;99820.00;;;;5011193;28;20239;-76
2021/01/28 12:04:42;;;;;;;2.42;2.22;;;;;12.80;99820.00;;;;5011356;28;20208;-76
2021/01/28 12:07:10;;;;;;;3.00;2.53;;;;;12.80;99812.00;;;;5010612;28;20201;-77
2021/01/28 12:09:37;;;;;;;3.08;2.35;;;;;12.80;99813.00;;;;5010342;28;20224;-77
2021/01/28 12:12:04;;;;;;;3.20;2.42;;;;;12.80;99808.00;;;;5010289;28;20205;-77
2021/01/28 12:14:31;;;;;;;3.70;2.50;;;;;12.80;99809.00;;;;5010042;28;20690;-76
2021/01/28 12:16:58;;;;;;;3.30;2.60;;;;;12.80;99811.00;;;;5010506;28;20212;-77
2021/01/28 12:19:24;;;;;;;2.55;2.05;;;;;12.80;99823.00;;;;5010385;28;20209;-76
2021/01/28 12:21:51;;;;;;;2.58;2.03;;;;;12.80;99830.00;;;;5010118;28;20705;-76
2021/01/28 12:24:18;;;;;;;2.63;2.25;;;;;12.80;99828.00;;;;5010986;28;20260;-76